Alleene, Arkansas
Current Conditions -  °F | °C
As of 8:53 AM on Friday 19 Dec 2014 (Local Time) from KDEQ Reporting Station
Haze Haze  
Wind Chill: 39°   Ceiling: 500
Heat Index: 43°   Visibility: 5mi
Dew Point: 42°   Wind: 6mph
Humidity: 97%   Direction: 110°ESE
Pressure: 30.21"   Gusts: NA
Location:  33.77°N, 94.26°W
Report Text: KDEQ 191453Z AUTO 11005KT 5SM BR OVC005 06/06 A3021 RMK AO2 RAB37E48 SLP230 P0000 60000 T00610056 50008
Loading
Personal Weather Stations






























Interactive Weather Map New forecast layout! Learn more

10-Day Weather Forecast

Advertisements
Track Severe Weather on mobile